createdAt,value
2018-08-22T00:00:38.048Z,20.43
2018-08-22T00:01:38.061Z,20.47
2018-08-22T00:02:37.949Z,20.33
2018-08-22T00:03:37.902Z,20.33
2018-08-22T00:04:37.857Z,20.33
2018-08-22T00:05:37.825Z,20.31
2018-08-22T00:06:37.789Z,20.33
2018-08-22T00:07:37.718Z,20.29
2018-08-22T00:08:37.672Z,20.29
2018-08-22T00:09:37.626Z,20.28
2018-08-22T00:10:37.578Z,20.36
2018-08-22T00:11:37.566Z,20.25
2018-08-22T00:12:37.489Z,20.17
2018-08-22T00:13:37.447Z,20.24
2018-08-22T00:14:37.393Z,20.26
2018-08-22T00:15:37.344Z,20.19
2018-08-22T00:16:37.343Z,20.17
2018-08-22T00:17:37.253Z,20.21
2018-08-22T00:18:37.210Z,20.22
2018-08-22T00:19:37.167Z,20.18
2018-08-22T00:20:37.115Z,20.25
2018-08-22T00:21:37.070Z,20.26
2018-08-22T00:22:37.121Z,20.17
2018-08-22T00:23:36.987Z,20.25
2018-08-22T00:24:36.935Z,20.17
2018-08-22T00:25:36.889Z,20.22
2018-08-22T00:26:36.845Z,20.17
2018-08-22T00:27:36.818Z,20.07
2018-08-22T00:28:36.752Z,20.14
2018-08-22T00:29:36.702Z,20.07
2018-08-22T00:30:36.656Z,20.11
2018-08-22T00:31:36.610Z,20.14
2018-08-22T00:32:36.600Z,20.10
2018-08-22T00:33:36.513Z,20.06
2018-08-22T00:34:36.469Z,20.03
2018-08-22T00:35:36.423Z,20.18
2018-08-22T00:36:36.387Z,20.10
2018-08-22T00:37:36.364Z,20.11
2018-08-22T00:38:36.292Z,20.19
2018-08-22T00:39:36.245Z,20.18
2018-08-22T00:40:36.196Z,20.21
2018-08-22T00:41:36.145Z,20.17
2018-08-22T00:42:36.126Z,20.24
2018-08-22T00:43:36.056Z,20.15
2018-08-22T00:44:36.004Z,20.18
2018-08-22T00:45:35.961Z,20.26
2018-08-22T00:46:35.914Z,20.19
2018-08-22T00:47:35.901Z,20.26
2018-08-22T00:48:35.823Z,20.18
2018-08-22T00:49:35.779Z,20.17
2018-08-22T00:50:35.736Z,20.07
2018-08-22T00:51:35.692Z,20.19
2018-08-22T00:52:35.664Z,20.17
2018-08-22T00:53:35.592Z,20.25
2018-08-22T00:54:35.548Z,20.17
2018-08-22T00:55:35.500Z,20.06
2018-08-22T00:56:35.450Z,20.26
2018-08-22T00:57:35.430Z,20.19
2018-08-22T00:58:35.356Z,20.09
2018-08-22T00:59:35.311Z,20.19
2018-08-22T01:00:35.270Z,20.15
2018-08-22T01:01:35.219Z,20.19
2018-08-22T01:02:35.239Z,20.17
2018-08-22T01:03:35.134Z,20.17
2018-08-22T01:04:35.083Z,20.19
2018-08-22T01:05:35.036Z,20.18
2018-08-22T01:06:34.996Z,20.17
2018-08-22T01:07:34.973Z,20.18
2018-08-22T01:08:34.903Z,20.17
2018-08-22T01:09:34.860Z,20.17
2018-08-22T01:10:34.809Z,20.18
2018-08-22T01:11:34.769Z,20.14
2018-08-22T01:12:34.739Z,20.07
2018-08-22T01:13:34.669Z,20.10
2018-08-22T01:14:34.624Z,20.03
2018-08-22T01:15:34.581Z,20.03
2018-08-22T01:16:34.532Z,20.11
2018-08-22T01:17:34.507Z,20.14
2018-08-22T01:18:34.442Z,20.19
2018-08-22T01:19:34.395Z,20.17
2018-08-22T01:20:34.351Z,20.06
2018-08-22T01:21:34.299Z,20.01
2018-08-22T01:22:34.280Z,20.17
2018-08-22T01:23:34.207Z,20.04
2018-08-22T01:24:34.160Z,20.11
2018-08-22T01:25:34.113Z,20.14
2018-08-22T01:26:34.071Z,20.17
2018-08-22T01:27:34.049Z,20.15
2018-08-22T01:28:33.982Z,20.06
2018-08-22T01:29:33.930Z,20.14
2018-08-22T01:30:33.899Z,20.11
2018-08-22T01:31:33.833Z,20.17
2018-08-22T01:32:33.819Z,20.15
2018-08-22T01:33:33.740Z,20.17
2018-08-22T01:34:33.701Z,20.17
2018-08-22T01:35:33.652Z,20.17
2018-08-22T01:36:33.608Z,20.17
2018-08-22T01:37:33.582Z,20.21
2018-08-22T01:38:33.514Z,20.24
2018-08-22T01:39:33.472Z,20.15
2018-08-22T01:40:33.428Z,20.18
2018-08-22T01:41:33.380Z,20.25
2018-08-22T01:42:33.367Z,20.19
2018-08-22T01:43:33.287Z,20.25
2018-08-22T01:44:33.242Z,20.33
2018-08-22T01:45:33.192Z,20.28
2018-08-22T01:46:33.146Z,20.28
2018-08-22T01:47:33.095Z,20.29
2018-08-22T01:48:33.084Z,20.34
2018-08-22T01:49:33.006Z,20.34
2018-08-22T01:50:32.959Z,20.37
2018-08-22T01:51:32.912Z,20.39
2018-08-22T01:52:32.865Z,20.43
2018-08-22T01:53:32.848Z,20.43
2018-08-22T01:54:32.779Z,20.52
2018-08-22T01:55:32.732Z,20.59
2018-08-22T01:56:32.681Z,20.59
2018-08-22T01:57:32.641Z,20.60
2018-08-22T01:58:32.635Z,20.63
2018-08-22T01:59:32.548Z,20.59
2018-08-22T02:00:32.510Z,20.63
2018-08-22T02:01:32.456Z,20.66
2018-08-22T02:02:32.413Z,20.60
2018-08-22T02:03:32.387Z,20.71
2018-08-22T02:04:32.322Z,20.69
2018-08-22T02:05:32.272Z,20.66
2018-08-22T02:06:32.220Z,20.65
2018-08-22T02:07:32.177Z,20.67
2018-08-22T02:08:32.159Z,20.75
2018-08-22T02:09:32.083Z,20.77
2018-08-22T02:10:32.040Z,20.71
2018-08-22T02:11:31.993Z,20.77
2018-08-22T02:12:31.948Z,20.82
2018-08-22T02:13:31.933Z,20.77
2018-08-22T02:14:31.858Z,20.81
2018-08-22T02:15:31.814Z,20.80
2018-08-22T02:16:31.770Z,20.85
2018-08-22T02:17:31.719Z,20.89
2018-08-22T02:18:31.698Z,20.96
2018-08-22T02:19:31.659Z,20.89
2018-08-22T02:20:31.583Z,20.90
2018-08-22T02:21:31.567Z,20.89
2018-08-22T02:22:31.492Z,20.89
2018-08-22T02:23:31.471Z,20.89
2018-08-22T02:24:31.398Z,20.95
2018-08-22T02:25:31.351Z,20.95
2018-08-22T02:26:31.309Z,20.93
2018-08-22T02:27:31.259Z,21.02
2018-08-22T02:28:31.237Z,20.92
2018-08-22T02:29:31.174Z,20.97
2018-08-22T02:30:31.123Z,20.95
2018-08-22T02:31:31.080Z,21.02
2018-08-22T02:32:31.031Z,20.95
2018-08-22T02:33:31.011Z,20.99
2018-08-22T02:34:30.941Z,21.05
2018-08-22T02:35:30.898Z,20.92
2018-08-22T02:36:30.845Z,20.93
2018-08-22T02:37:30.802Z,21.05
2018-08-22T02:38:30.780Z,21.00
2018-08-22T02:39:30.718Z,20.97
2018-08-22T02:40:30.679Z,21.11
2018-08-22T02:41:30.621Z,21.06
2018-08-22T02:42:30.579Z,21.00
2018-08-22T02:43:30.557Z,21.00
2018-08-22T02:44:30.491Z,21.03
2018-08-22T02:45:30.449Z,21.03
2018-08-22T02:46:30.391Z,21.00
2018-08-22T02:47:30.346Z,20.97
2018-08-22T02:48:30.319Z,20.95
2018-08-22T02:49:30.260Z,21.03
2018-08-22T02:50:30.216Z,21.00
2018-08-22T02:51:30.169Z,21.02
2018-08-22T02:52:30.117Z,21.00
2018-08-22T02:53:30.112Z,21.03
2018-08-22T02:54:30.026Z,21.03
2018-08-22T02:55:29.979Z,21.06
2018-08-22T02:56:29.933Z,21.10
2018-08-22T02:57:29.889Z,21.10
2018-08-22T02:58:29.844Z,21.12
2018-08-22T02:59:29.822Z,21.10
2018-08-22T03:00:29.748Z,21.08
2018-08-22T03:01:29.704Z,21.11
2018-08-22T03:02:29.659Z,21.17
2018-08-22T03:03:29.613Z,21.11
2018-08-22T03:04:29.594Z,21.15
2018-08-22T03:05:29.521Z,21.18
2018-08-22T03:06:29.481Z,21.11
2018-08-22T03:07:29.434Z,21.12
2018-08-22T03:08:29.392Z,21.17
2018-08-22T03:09:29.369Z,21.22
2018-08-22T03:10:29.293Z,21.14
2018-08-22T03:11:29.248Z,21.17
2018-08-22T03:12:29.202Z,21.22
2018-08-22T03:13:29.158Z,21.27
2018-08-22T03:14:29.140Z,21.26
2018-08-22T03:15:29.067Z,21.29
2018-08-22T03:16:29.028Z,21.27
2018-08-22T03:17:28.976Z,21.26
2018-08-22T03:18:28.929Z,21.22
2018-08-22T03:19:28.904Z,21.24
2018-08-22T03:20:28.842Z,21.32
2018-08-22T03:21:28.794Z,21.27
2018-08-22T03:22:28.749Z,21.27
2018-08-22T03:23:28.702Z,21.29
2018-08-22T03:24:28.685Z,21.29
2018-08-22T03:25:28.615Z,21.26
2018-08-22T03:26:28.561Z,21.30
2018-08-22T03:27:28.531Z,21.24
2018-08-22T03:28:28.484Z,21.24
2018-08-22T03:29:28.448Z,21.29
2018-08-22T03:30:28.384Z,21.37
2018-08-22T03:31:28.346Z,21.35
2018-08-22T03:32:28.292Z,21.24
2018-08-22T03:33:28.245Z,21.29
2018-08-22T03:34:28.223Z,21.20
2018-08-22T03:35:28.154Z,21.26
2018-08-22T03:36:28.118Z,21.27
2018-08-22T03:37:28.064Z,21.29
2018-08-22T03:38:28.025Z,21.24
2018-08-22T03:39:27.999Z,21.32
2018-08-22T03:40:27.927Z,21.24
2018-08-22T03:41:27.885Z,21.26
2018-08-22T03:42:27.841Z,21.22
2018-08-22T03:43:27.796Z,21.29
2018-08-22T03:44:27.781Z,21.29
2018-08-22T03:45:27.703Z,21.27
2018-08-22T03:46:27.656Z,21.26
2018-08-22T03:47:27.606Z,21.29
2018-08-22T03:48:27.562Z,21.29
2018-08-22T03:49:27.545Z,21.29
2018-08-22T03:50:27.479Z,21.29
2018-08-22T03:51:27.421Z,21.33
2018-08-22T03:52:27.387Z,21.24
2018-08-22T03:53:27.333Z,21.32
2018-08-22T03:54:27.315Z,21.29
2018-08-22T03:55:27.243Z,21.26
2018-08-22T03:56:27.200Z,21.20
2018-08-22T03:57:27.155Z,21.30
2018-08-22T03:58:27.116Z,21.30
2018-08-22T03:59:27.093Z,21.32
2018-08-22T04:00:27.017Z,21.24
2018-08-22T04:01:26.986Z,21.18
2018-08-22T04:02:26.926Z,21.15
2018-08-22T04:03:26.882Z,21.15
2018-08-22T04:04:26.859Z,21.21
2018-08-22T04:05:26.788Z,21.17
2018-08-22T04:06:26.742Z,21.17
2018-08-22T04:07:26.697Z,21.15
2018-08-22T04:08:26.657Z,21.15
2018-08-22T04:09:26.627Z,21.17
2018-08-22T04:10:26.561Z,21.14
2018-08-22T04:11:26.518Z,21.14
2018-08-22T04:12:26.472Z,21.18
2018-08-22T04:13:26.423Z,21.14
2018-08-22T04:14:26.402Z,21.12
2018-08-22T04:15:26.331Z,21.15
2018-08-22T04:16:26.291Z,21.12
2018-08-22T04:17:26.241Z,21.11
2018-08-22T04:18:26.197Z,21.12
2018-08-22T04:19:26.153Z,21.08
2018-08-22T04:20:26.131Z,21.15
2018-08-22T04:21:26.104Z,21.11
2018-08-22T04:22:26.018Z,21.11
2018-08-22T04:23:25.965Z,21.10
2018-08-22T04:24:25.921Z,21.14
2018-08-22T04:25:25.899Z,21.12
2018-08-22T04:26:25.826Z,21.20
2018-08-22T04:27:25.793Z,21.11
2018-08-22T04:28:25.737Z,21.08
2018-08-22T04:29:25.694Z,21.14
2018-08-22T04:30:25.671Z,21.14
2018-08-22T04:31:25.603Z,21.18
2018-08-22T04:32:25.561Z,21.12
2018-08-22T04:33:25.527Z,21.14
2018-08-22T04:34:25.467Z,21.18
2018-08-22T04:35:25.448Z,21.15
2018-08-22T04:36:25.382Z,21.11
2018-08-22T04:37:25.333Z,21.18
2018-08-22T04:38:25.284Z,21.08
2018-08-22T04:39:25.244Z,21.14
2018-08-22T04:40:25.238Z,21.10
2018-08-22T04:41:25.144Z,21.17
2018-08-22T04:42:25.107Z,21.12
2018-08-22T04:43:25.052Z,21.08
2018-08-22T04:44:25.006Z,21.10
2018-08-22T04:45:24.987Z,21.14
2018-08-22T04:46:24.921Z,21.11
2018-08-22T04:47:24.872Z,21.12
2018-08-22T04:48:24.830Z,21.10
2018-08-22T04:49:24.790Z,21.12
2018-08-22T04:50:24.761Z,21.12
2018-08-22T04:51:24.693Z,21.12
2018-08-22T04:52:24.641Z,21.12
2018-08-22T04:53:24.599Z,21.08
2018-08-22T04:54:24.559Z,21.10
2018-08-22T04:55:24.533Z,21.12
2018-08-22T04:56:24.462Z,21.05
2018-08-22T04:57:24.411Z,21.10
2018-08-22T04:58:24.374Z,21.11
2018-08-22T04:59:24.318Z,21.11
2018-08-22T05:00:24.300Z,21.08
2018-08-22T05:01:24.229Z,21.06
2018-08-22T05:02:24.187Z,21.00
2018-08-22T05:03:24.140Z,21.05
2018-08-22T05:04:24.095Z,21.00
2018-08-22T05:05:24.078Z,20.99
2018-08-22T05:06:24.013Z,21.05
2018-08-22T05:07:23.957Z,20.95
2018-08-22T05:08:23.917Z,20.93
2018-08-22T05:09:23.865Z,21.02
2018-08-22T05:10:23.853Z,20.97
2018-08-22T05:11:23.774Z,20.96
2018-08-22T05:12:23.731Z,20.97
2018-08-22T05:13:23.691Z,21.00
2018-08-22T05:14:23.650Z,20.96
2018-08-22T05:15:23.612Z,21.02
2018-08-22T05:16:23.547Z,21.00
2018-08-22T05:17:23.496Z,21.05
2018-08-22T05:18:23.453Z,21.00
2018-08-22T05:19:23.406Z,21.06
2018-08-22T05:20:23.403Z,21.08
2018-08-22T05:21:23.323Z,21.06
2018-08-22T05:22:23.270Z,21.08
2018-08-22T05:23:23.227Z,21.05
2018-08-22T05:24:23.180Z,21.06
2018-08-22T05:25:23.182Z,21.10
2018-08-22T05:26:23.090Z,21.15
2018-08-22T05:27:23.044Z,21.14
2018-08-22T05:28:22.996Z,21.17
2018-08-22T05:29:22.951Z,21.12
2018-08-22T05:30:22.901Z,21.18
2018-08-22T05:31:22.903Z,21.27
2018-08-22T05:32:22.811Z,21.27
2018-08-22T05:33:22.768Z,21.27
2018-08-22T05:34:22.724Z,21.24
2018-08-22T05:35:22.677Z,21.27
2018-08-22T05:36:22.653Z,21.24
2018-08-22T05:37:22.582Z,21.22
2018-08-22T05:38:22.543Z,21.33
2018-08-22T05:39:22.494Z,21.27
2018-08-22T05:40:22.453Z,21.27
2018-08-22T05:41:22.430Z,21.32
2018-08-22T05:42:22.358Z,21.24
2018-08-22T05:43:22.315Z,21.37
2018-08-22T05:44:22.262Z,21.33
2018-08-22T05:45:22.228Z,21.37
2018-08-22T05:46:22.209Z,21.51
2018-08-22T05:47:22.151Z,21.39
2018-08-22T05:48:22.083Z,21.52
2018-08-22T05:49:22.042Z,21.52
2018-08-22T05:50:21.995Z,21.43
2018-08-22T05:51:21.974Z,21.47
2018-08-22T05:52:21.910Z,21.52
2018-08-22T05:53:21.852Z,21.55
2018-08-22T05:54:21.816Z,21.45
2018-08-22T05:55:21.766Z,21.51
2018-08-22T05:56:21.747Z,21.58
2018-08-22T05:57:21.672Z,21.58
2018-08-22T05:58:21.636Z,21.52
2018-08-22T05:59:21.587Z,21.66
2018-08-22T06:00:21.550Z,21.58
2018-08-22T06:01:21.520Z,21.63
2018-08-22T06:02:21.452Z,21.69
2018-08-22T06:03:21.450Z,21.73
2018-08-22T06:04:21.361Z,21.70
2018-08-22T06:05:21.318Z,21.82
2018-08-22T06:06:21.317Z,21.76
2018-08-22T06:07:21.222Z,21.85
2018-08-22T06:08:21.185Z,21.90
2018-08-22T06:09:21.127Z,22.07
2018-08-22T06:10:21.101Z,22.11
2018-08-22T06:11:21.077Z,22.17
2018-08-22T06:12:20.997Z,22.25
2018-08-22T06:13:20.965Z,22.23
2018-08-22T06:14:20.905Z,22.38
2018-08-22T06:15:20.860Z,22.48
2018-08-22T06:16:20.852Z,22.44
2018-08-22T06:17:20.774Z,22.59
2018-08-22T06:18:20.735Z,22.72
2018-08-22T06:19:20.684Z,22.73
2018-08-22T06:20:20.638Z,22.88
2018-08-22T06:21:20.624Z,22.91
2018-08-22T06:22:20.545Z,22.99
2018-08-22T06:23:20.500Z,22.95
2018-08-22T06:24:20.457Z,23.09
2018-08-22T06:25:20.418Z,23.14
2018-08-22T06:26:20.393Z,23.33
2018-08-22T06:27:20.321Z,23.34
2018-08-22T06:28:20.278Z,23.51
2018-08-22T06:29:20.238Z,23.46
2018-08-22T06:30:20.190Z,23.59
2018-08-22T06:31:20.175Z,23.56
2018-08-22T06:32:20.101Z,23.62
2018-08-22T06:33:20.067Z,23.77
2018-08-22T06:34:20.013Z,23.76
2018-08-22T06:35:19.974Z,23.78
2018-08-22T06:36:19.958Z,23.81
2018-08-22T06:37:19.876Z,23.89
2018-08-22T06:38:19.838Z,23.96
2018-08-22T06:39:19.790Z,23.92
2018-08-22T06:40:19.740Z,24.03
2018-08-22T06:41:19.751Z,23.99
2018-08-22T06:42:19.655Z,24.11
2018-08-22T06:43:19.610Z,24.13
2018-08-22T06:44:19.632Z,24.15
2018-08-22T06:45:19.523Z,24.25
2018-08-22T06:46:19.482Z,24.26
2018-08-22T06:47:19.463Z,24.30
2018-08-22T06:48:19.393Z,24.40
2018-08-22T06:49:19.346Z,24.35
2018-08-22T06:50:19.438Z,24.40
2018-08-22T06:51:19.258Z,24.47
2018-08-22T06:52:19.240Z,24.44
2018-08-22T06:53:19.172Z,24.45
2018-08-22T06:54:19.128Z,24.58
2018-08-22T06:55:19.088Z,24.58
2018-08-22T06:56:19.047Z,24.74
2018-08-22T06:57:19.029Z,24.70
2018-08-22T06:58:18.957Z,24.85
2018-08-22T06:59:18.911Z,24.74
2018-08-22T07:00:18.877Z,24.88
2018-08-22T07:01:18.821Z,24.98
2018-08-22T07:02:18.814Z,25.01
2018-08-22T07:03:18.740Z,25.01
2018-08-22T07:04:18.693Z,25.06
2018-08-22T07:05:18.649Z,25.19
2018-08-22T07:06:18.605Z,25.13
2018-08-22T07:07:18.591Z,25.33
2018-08-22T07:08:18.524Z,25.30
2018-08-22T07:09:18.487Z,25.41
2018-08-22T07:10:18.431Z,25.41
2018-08-22T07:11:18.391Z,25.40
2018-08-22T07:12:18.369Z,25.38
2018-08-22T07:13:18.309Z,25.43
2018-08-22T07:14:18.269Z,25.25
2018-08-22T07:15:18.227Z,25.26
2018-08-22T07:16:18.175Z,25.25
2018-08-22T07:17:18.156Z,25.30
2018-08-22T07:18:18.091Z,25.13
2018-08-22T07:19:18.052Z,25.15
2018-08-22T07:20:18.009Z,25.15
2018-08-22T07:21:17.968Z,25.29
2018-08-22T07:22:17.947Z,25.25
2018-08-22T07:23:17.876Z,25.29
2018-08-22T07:24:17.833Z,25.35
2018-08-22T07:25:17.785Z,25.33
2018-08-22T07:26:17.743Z,25.35
2018-08-22T07:27:17.723Z,25.38
2018-08-22T07:28:17.659Z,25.55
2018-08-22T07:29:17.618Z,25.60
2018-08-22T07:30:17.570Z,25.55
2018-08-22T07:31:17.533Z,25.32
2018-08-22T07:32:17.511Z,25.26
2018-08-22T07:33:17.442Z,25.03
2018-08-22T07:34:17.405Z,24.83
2018-08-22T07:35:17.359Z,24.70
2018-08-22T07:36:17.319Z,24.76
2018-08-22T07:37:17.331Z,24.70
2018-08-22T07:38:17.231Z,24.58
2018-08-22T07:39:17.207Z,24.43
2018-08-22T07:40:17.145Z,24.48
2018-08-22T07:41:17.103Z,24.51
2018-08-22T07:42:17.084Z,24.58
2018-08-22T07:43:17.015Z,24.76
2018-08-22T07:44:16.972Z,24.76
2018-08-22T07:45:16.929Z,24.74
2018-08-22T07:46:16.890Z,24.83
2018-08-22T07:47:16.970Z,24.96
2018-08-22T07:48:16.806Z,24.96
2018-08-22T07:49:16.772Z,25.15
2018-08-22T07:50:16.795Z,25.26
2018-08-22T07:51:16.675Z,25.30
2018-08-22T07:52:16.671Z,25.43
2018-08-22T07:53:16.612Z,25.58
2018-08-22T07:54:16.548Z,25.75
2018-08-22T07:55:16.511Z,25.78
2018-08-22T07:56:16.455Z,25.99
2018-08-22T07:57:16.445Z,26.10
2018-08-22T07:58:16.368Z,26.20
2018-08-22T07:59:16.367Z,26.06
2018-08-22T08:00:16.329Z,26.04
2018-08-22T08:01:16.251Z,25.84
2018-08-22T08:02:16.239Z,25.77
2018-08-22T08:03:16.161Z,25.77
2018-08-22T08:04:16.122Z,25.80
2018-08-22T08:05:16.075Z,25.63
2018-08-22T08:06:16.037Z,25.45
2018-08-22T08:07:16.038Z,25.63
2018-08-22T08:08:15.951Z,25.56
2018-08-22T08:09:15.908Z,25.77
2018-08-22T08:10:15.907Z,25.80
2018-08-22T08:11:15.837Z,25.92
2018-08-22T08:12:15.784Z,25.99
2018-08-22T08:13:15.785Z,26.19
2018-08-22T08:14:15.694Z,26.23
2018-08-22T08:15:15.650Z,26.28
2018-08-22T08:16:15.609Z,26.40
2018-08-22T08:17:15.647Z,26.48
2018-08-22T08:18:15.578Z,26.55
2018-08-22T08:19:15.489Z,26.44
2018-08-22T08:20:15.444Z,26.37
2018-08-22T08:21:15.401Z,26.45
2018-08-22T08:22:15.355Z,26.45
2018-08-22T08:23:15.341Z,26.52
2018-08-22T08:24:15.276Z,26.56
2018-08-22T08:25:15.238Z,26.71
2018-08-22T08:26:15.211Z,26.70
2018-08-22T08:27:15.152Z,26.59
2018-08-22T08:28:15.132Z,26.57
2018-08-22T08:29:15.064Z,26.33
2018-08-22T08:30:15.021Z,26.20
2018-08-22T08:31:14.981Z,26.10
2018-08-22T08:32:14.940Z,26.07
2018-08-22T08:33:14.922Z,26.11
2018-08-22T08:34:14.854Z,26.12
2018-08-22T08:35:14.814Z,26.03
2018-08-22T08:36:14.850Z,26.07
2018-08-22T08:37:14.726Z,26.19
2018-08-22T08:38:14.722Z,26.28
2018-08-22T08:39:14.641Z,26.40
2018-08-22T08:40:14.610Z,26.59
2018-08-22T08:41:14.564Z,26.68
2018-08-22T08:42:14.526Z,26.81
2018-08-22T08:43:14.516Z,26.90
2018-08-22T08:44:14.438Z,26.96
2018-08-22T08:45:14.393Z,27.09
2018-08-22T08:46:14.355Z,27.11
2018-08-22T08:47:14.312Z,27.04
2018-08-22T08:48:14.296Z,27.09
2018-08-22T08:49:14.229Z,27.07
2018-08-22T08:50:14.184Z,27.07
2018-08-22T08:51:14.148Z,26.86
2018-08-22T08:52:14.108Z,26.71
2018-08-22T08:53:14.090Z,26.68
2018-08-22T08:54:14.023Z,26.65
2018-08-22T08:55:13.997Z,26.52
2018-08-22T08:56:13.941Z,26.35
2018-08-22T08:57:13.906Z,26.23
2018-08-22T08:58:13.885Z,26.33
2018-08-22T08:59:13.834Z,26.44
2018-08-22T09:00:13.771Z,26.41
2018-08-22T09:01:13.727Z,26.40
2018-08-22T09:02:13.707Z,26.26
2018-08-22T09:03:13.668Z,26.33
2018-08-22T09:04:13.606Z,26.23
2018-08-22T09:05:13.570Z,26.30
2018-08-22T09:06:13.525Z,26.35
2018-08-22T09:07:13.479Z,26.43
2018-08-22T09:08:13.466Z,26.40
2018-08-22T09:09:13.394Z,26.41
2018-08-22T09:10:13.395Z,26.48
2018-08-22T09:11:13.312Z,26.52
2018-08-22T09:12:13.289Z,26.53
2018-08-22T09:13:13.251Z,26.67
2018-08-22T09:14:13.194Z,26.67
2018-08-22T09:15:13.145Z,26.74
2018-08-22T09:16:13.110Z,26.86
2018-08-22T09:17:13.112Z,26.86
2018-08-22T09:18:13.043Z,26.77
2018-08-22T09:19:12.978Z,26.85
2018-08-22T09:20:12.937Z,26.77
2018-08-22T09:21:12.964Z,26.74
2018-08-22T09:22:12.885Z,26.74
2018-08-22T09:23:12.896Z,26.81
2018-08-22T09:24:12.808Z,27.02
2018-08-22T09:25:12.729Z,27.17
2018-08-22T09:26:12.686Z,27.23
2018-08-22T09:27:12.650Z,27.42
2018-08-22T09:28:12.694Z,27.71
2018-08-22T09:29:12.608Z,27.74
2018-08-22T09:30:12.524Z,27.92
2018-08-22T09:31:12.483Z,27.80
2018-08-22T09:32:12.440Z,27.74
2018-08-22T09:33:12.396Z,27.62
2018-08-22T09:34:12.381Z,27.64
2018-08-22T09:35:12.311Z,27.67
2018-08-22T09:36:12.272Z,27.74
2018-08-22T09:37:12.232Z,27.70
2018-08-22T09:38:12.204Z,27.74
2018-08-22T09:39:12.174Z,27.60
2018-08-22T09:40:12.198Z,27.51
2018-08-22T09:41:12.064Z,27.41
2018-08-22T09:42:12.031Z,27.33
2018-08-22T09:43:12.009Z,27.33
2018-08-22T09:44:11.972Z,27.46
2018-08-22T09:45:11.902Z,27.48
2018-08-22T09:46:11.864Z,27.55
2018-08-22T09:47:11.836Z,27.34
2018-08-22T09:48:11.802Z,27.48
2018-08-22T09:49:11.770Z,27.55
2018-08-22T09:50:11.710Z,27.67
2018-08-22T09:51:11.660Z,27.79
2018-08-22T09:52:11.615Z,27.92
2018-08-22T09:53:11.582Z,28.01
2018-08-22T09:54:11.562Z,27.99
2018-08-22T09:55:11.496Z,27.82
2018-08-22T09:56:11.458Z,27.82
2018-08-22T09:57:11.417Z,27.87
2018-08-22T09:58:11.410Z,28.02
2018-08-22T09:59:11.358Z,28.04
2018-08-22T10:00:11.345Z,28.02
2018-08-22T10:01:11.253Z,28.11
2018-08-22T10:02:11.225Z,28.30
2018-08-22T10:03:11.166Z,28.16
2018-08-22T10:04:11.154Z,28.14
2018-08-22T10:05:11.090Z,28.12
2018-08-22T10:06:11.048Z,28.26
2018-08-22T10:07:11.056Z,28.23
2018-08-22T10:08:10.968Z,28.34
2018-08-22T10:09:10.957Z,28.27
2018-08-22T10:10:10.883Z,28.38
2018-08-22T10:11:10.848Z,28.30
2018-08-22T10:12:10.820Z,28.42
2018-08-22T10:13:10.766Z,28.48
2018-08-22T10:14:10.750Z,28.66
2018-08-22T10:15:10.685Z,28.56
2018-08-22T10:16:10.641Z,28.45
2018-08-22T10:17:10.637Z,28.26
2018-08-22T10:18:10.582Z,28.11
2018-08-22T10:19:10.631Z,28.07
2018-08-22T10:20:10.487Z,28.17
2018-08-22T10:21:10.443Z,28.34
2018-08-22T10:22:10.400Z,28.24
2018-08-22T10:23:10.357Z,28.35
2018-08-22T10:24:10.333Z,28.41
2018-08-22T10:25:10.301Z,28.54
2018-08-22T10:26:10.239Z,28.53
2018-08-22T10:27:10.211Z,28.57
2018-08-22T10:28:10.165Z,28.64
2018-08-22T10:29:10.118Z,28.58
2018-08-22T10:30:10.097Z,28.53
2018-08-22T10:31:10.032Z,28.54
2018-08-22T10:32:09.995Z,28.51
2018-08-22T10:33:09.953Z,28.45
2018-08-22T10:34:09.915Z,28.58
2018-08-22T10:35:09.917Z,28.58
2018-08-22T10:36:09.838Z,28.61
2018-08-22T10:37:09.796Z,28.51
2018-08-22T10:38:09.755Z,28.38
2018-08-22T10:39:09.714Z,28.39
2018-08-22T10:40:09.718Z,28.39
2018-08-22T10:41:09.631Z,28.46
2018-08-22T10:42:09.593Z,28.39
2018-08-22T10:43:09.551Z,28.35
2018-08-22T10:44:09.517Z,28.34
2018-08-22T10:45:09.498Z,28.30
2018-08-22T10:46:09.455Z,28.60
2018-08-22T10:47:09.394Z,28.60
2018-08-22T10:48:09.355Z,28.71
2018-08-22T10:49:09.305Z,28.53
2018-08-22T10:50:09.290Z,28.58
2018-08-22T10:51:09.241Z,28.54
2018-08-22T10:52:09.188Z,28.60
2018-08-22T10:53:09.149Z,28.69
2018-08-22T10:54:09.128Z,28.73
2018-08-22T10:55:09.097Z,28.88
2018-08-22T10:56:09.031Z,29.02
2018-08-22T10:57:08.991Z,29.02
2018-08-22T10:58:08.947Z,29.17
2018-08-22T10:59:08.909Z,29.21
2018-08-22T11:00:08.898Z,29.28
2018-08-22T11:01:08.828Z,29.32
2018-08-22T11:02:08.792Z,29.28
2018-08-22T11:03:08.769Z,29.26
2018-08-22T11:04:08.711Z,29.17
2018-08-22T11:05:08.688Z,29.10
2018-08-22T11:06:08.628Z,29.07
2018-08-22T11:07:08.602Z,29.10
2018-08-22T11:08:08.550Z,28.97
2018-08-22T11:09:08.527Z,28.88
2018-08-22T11:10:08.488Z,28.97
2018-08-22T11:11:08.447Z,28.95
2018-08-22T11:12:08.393Z,28.98
2018-08-22T11:13:08.346Z,28.88
2018-08-22T11:14:08.315Z,28.83
2018-08-22T11:15:08.289Z,28.79
2018-08-22T11:16:08.269Z,28.88
2018-08-22T11:17:08.192Z,28.98
2018-08-22T11:18:08.238Z,28.94
2018-08-22T11:19:08.111Z,28.98
2018-08-22T11:20:08.101Z,28.98
2018-08-22T11:21:08.025Z,29.04
2018-08-22T11:22:07.986Z,28.97
2018-08-22T11:23:07.950Z,28.98
2018-08-22T11:24:07.911Z,29.04
2018-08-22T11:25:07.904Z,29.16
2018-08-22T11:26:07.888Z,29.19
2018-08-22T11:27:07.862Z,29.25
2018-08-22T11:28:07.746Z,29.11
2018-08-22T11:29:07.703Z,29.09
2018-08-22T11:30:07.668Z,28.97
2018-08-22T11:31:07.772Z,28.97
2018-08-22T11:32:07.584Z,28.97
2018-08-22T11:33:07.552Z,28.98
2018-08-22T11:34:07.506Z,29.05
2018-08-22T11:35:07.467Z,28.85
2018-08-22T11:36:07.453Z,28.79
2018-08-22T11:37:07.389Z,28.78
2018-08-22T11:38:07.346Z,28.76
2018-08-22T11:39:07.318Z,28.85
2018-08-22T11:40:07.267Z,28.93
2018-08-22T11:41:07.251Z,28.86
2018-08-22T11:42:07.183Z,28.98
2018-08-22T11:43:07.143Z,28.97
2018-08-22T11:44:07.105Z,28.95
2018-08-22T11:45:07.060Z,29.01
2018-08-22T11:46:07.044Z,28.95
2018-08-22T11:47:06.980Z,28.91
2018-08-22T11:48:06.943Z,28.95
2018-08-22T11:49:06.902Z,28.98
2018-08-22T11:50:06.864Z,29.07
2018-08-22T11:51:06.847Z,29.05
2018-08-22T11:52:06.780Z,29.07
2018-08-22T11:53:06.740Z,29.14
2018-08-22T11:54:06.703Z,29.16
2018-08-22T11:55:06.663Z,29.19
2018-08-22T11:56:06.677Z,29.21
2018-08-22T11:57:06.579Z,29.16
2018-08-22T11:58:06.535Z,29.19
2018-08-22T11:59:06.500Z,29.28
2018-08-22T12:00:06.459Z,29.31
2018-08-22T12:01:06.438Z,29.39
2018-08-22T12:02:06.388Z,29.53
2018-08-22T12:03:06.337Z,29.53
2018-08-22T12:04:06.298Z,29.57
2018-08-22T12:05:06.257Z,29.57
2018-08-22T12:06:06.237Z,29.48
2018-08-22T12:07:06.182Z,29.54
2018-08-22T12:08:06.132Z,29.46
2018-08-22T12:09:06.094Z,29.46
2018-08-22T12:10:06.063Z,29.39
2018-08-22T12:11:06.038Z,29.50
2018-08-22T12:12:05.975Z,29.48
2018-08-22T12:13:05.936Z,29.60
2018-08-22T12:14:05.897Z,29.62
2018-08-22T12:15:05.854Z,29.60
2018-08-22T12:16:05.876Z,29.75
2018-08-22T12:17:05.772Z,29.68
2018-08-22T12:18:05.733Z,29.69
2018-08-22T12:19:05.694Z,29.72
2018-08-22T12:20:05.657Z,29.72
2018-08-22T12:21:05.639Z,29.75
2018-08-22T12:22:05.577Z,29.85
2018-08-22T12:23:05.604Z,29.84
2018-08-22T12:24:05.499Z,29.78
2018-08-22T12:25:05.454Z,29.81
2018-08-22T12:26:05.413Z,29.73
2018-08-22T12:27:05.422Z,29.76
2018-08-22T12:28:05.330Z,29.79
2018-08-22T12:29:05.297Z,29.76
2018-08-22T12:30:05.255Z,29.66
2018-08-22T12:31:05.285Z,29.57
2018-08-22T12:32:05.205Z,29.55
2018-08-22T12:33:05.134Z,29.58
2018-08-22T12:34:05.092Z,29.48
2018-08-22T12:35:05.058Z,29.57
2018-08-22T12:36:05.019Z,29.58
2018-08-22T12:37:05.016Z,29.51
2018-08-22T12:38:04.935Z,29.55
2018-08-22T12:39:04.894Z,29.53
2018-08-22T12:40:04.858Z,29.48
2018-08-22T12:41:04.816Z,29.47
2018-08-22T12:42:04.800Z,29.48
2018-08-22T12:43:04.734Z,29.39
2018-08-22T12:44:04.695Z,29.39
2018-08-22T12:45:04.655Z,29.53
2018-08-22T12:46:04.621Z,29.47
2018-08-22T12:47:04.608Z,29.39
2018-08-22T12:48:04.535Z,29.47
2018-08-22T12:49:04.495Z,29.38
2018-08-22T12:50:04.461Z,29.44
2018-08-22T12:51:04.416Z,29.47
2018-08-22T12:52:04.421Z,29.47